createdAt,value
2018-06-24T00:00:41.284Z,1.90
2018-06-24T00:03:10.778Z,1.70
2018-06-24T00:05:40.848Z,2.00
2018-06-24T00:08:09.766Z,1.53
2018-06-24T00:10:39.141Z,2.17
2018-06-24T00:13:08.243Z,1.70
2018-06-24T00:15:36.753Z,1.47
2018-06-24T00:18:05.713Z,1.90
2018-06-24T00:20:35.441Z,2.10
2018-06-24T00:23:04.937Z,2.07
2018-06-24T00:25:33.794Z,1.90
2018-06-24T00:28:04.190Z,1.73
2018-06-24T00:30:33.673Z,1.77
2018-06-24T00:33:02.847Z,2.27
2018-06-24T00:35:32.277Z,2.57
2018-06-24T00:38:02.173Z,2.20
2018-06-24T00:40:32.013Z,2.30
2018-06-24T00:43:00.832Z,2.10
2018-06-24T00:45:30.305Z,2.20
2018-06-24T00:47:59.825Z,2.67
2018-06-24T00:50:30.084Z,2.50
2018-06-24T00:52:59.677Z,2.60
2018-06-24T00:55:33.296Z,2.40
2018-06-24T00:58:02.322Z,2.07
2018-06-24T01:00:31.396Z,2.17
2018-06-24T01:03:02.400Z,2.53
2018-06-24T01:05:31.545Z,1.93
2018-06-24T01:08:01.137Z,2.50
2018-06-24T01:10:29.990Z,2.20
2018-06-24T01:12:59.704Z,2.70
2018-06-24T01:15:28.125Z,2.80
2018-06-24T01:17:57.262Z,2.90
2018-06-24T01:20:31.417Z,2.63
2018-06-24T01:23:01.331Z,3.70
2018-06-24T01:25:30.454Z,3.40
2018-06-24T01:28:00.487Z,3.13
2018-06-24T01:30:31.310Z,3.60
2018-06-24T01:33:00.845Z,3.80
2018-06-24T01:35:29.698Z,3.77
2018-06-24T01:37:59.781Z,4.67
2018-06-24T01:40:29.216Z,4.00
2018-06-24T01:42:59.043Z,3.80
2018-06-24T01:45:28.265Z,3.13
2018-06-24T01:47:57.777Z,3.27
2018-06-24T01:50:26.539Z,3.60
2018-06-24T01:52:56.655Z,3.63
2018-06-24T01:55:27.106Z,3.13
2018-06-24T01:57:57.752Z,3.20
2018-06-24T02:00:28.180Z,2.70
2018-06-24T02:02:57.164Z,3.27
2018-06-24T02:05:27.256Z,5.03
2018-06-24T02:07:56.438Z,3.67
2018-06-24T02:10:26.508Z,3.73
2018-06-24T02:12:55.364Z,3.87
2018-06-24T02:15:24.773Z,3.23
2018-06-24T02:17:54.766Z,3.47
2018-06-24T02:20:24.230Z,3.47
2018-06-24T02:22:53.793Z,3.90
2018-06-24T02:25:24.530Z,3.27
2018-06-24T02:27:53.981Z,3.60
2018-06-24T02:30:23.456Z,2.73
2018-06-24T02:32:52.639Z,2.53
2018-06-24T02:35:21.503Z,2.97
2018-06-24T02:37:50.388Z,2.60
2018-06-24T02:40:24.755Z,2.90
2018-06-24T02:42:54.521Z,2.67
2018-06-24T02:45:24.365Z,3.43
2018-06-24T02:47:53.605Z,2.97
2018-06-24T02:50:23.070Z,3.40
2018-06-24T02:52:52.626Z,2.53
2018-06-24T02:55:22.486Z,3.63
2018-06-24T02:57:53.691Z,3.07
2018-06-24T03:00:23.190Z,2.83
2018-06-24T03:02:52.382Z,3.70
2018-06-24T03:05:23.076Z,3.67
2018-06-24T03:07:51.972Z,3.33
2018-06-24T03:10:21.838Z,3.40
2018-06-24T03:12:53.362Z,3.40
2018-06-24T03:15:22.944Z,3.20
2018-06-24T03:17:52.606Z,3.30
2018-06-24T03:20:22.213Z,3.57
2018-06-24T03:22:51.392Z,3.20
2018-06-24T03:25:20.362Z,3.20
2018-06-24T03:27:49.420Z,3.20
2018-06-24T03:30:19.125Z,3.10
2018-06-24T03:32:49.128Z,2.93
2018-06-24T03:35:19.216Z,3.20
2018-06-24T03:37:49.027Z,3.10
2018-06-24T03:40:19.135Z,3.10
2018-06-24T03:42:48.085Z,3.77
2018-06-24T03:45:17.396Z,3.50
2018-06-24T03:47:49.709Z,3.90
2018-06-24T03:50:19.213Z,2.80
2018-06-24T03:52:47.899Z,3.10
2018-06-24T03:55:16.998Z,3.67
2018-06-24T03:57:46.005Z,3.13
2018-06-24T04:00:15.066Z,3.30
2018-06-24T04:02:44.285Z,3.20
2018-06-24T04:05:13.156Z,2.60
2018-06-24T04:07:42.152Z,3.20
2018-06-24T04:10:11.621Z,3.07
2018-06-24T04:12:41.675Z,3.10
2018-06-24T04:15:11.894Z,3.37
2018-06-24T04:17:43.266Z,3.00
2018-06-24T04:20:12.501Z,3.30
2018-06-24T04:22:41.459Z,3.30
2018-06-24T04:25:11.126Z,3.20
2018-06-24T04:27:39.785Z,3.30
2018-06-24T04:30:10.457Z,3.40
2018-06-24T04:32:40.658Z,3.03
2018-06-24T04:35:10.419Z,3.17
2018-06-24T04:37:40.391Z,3.40
2018-06-24T04:40:10.035Z,3.27
2018-06-24T04:42:39.542Z,3.20
2018-06-24T04:45:09.393Z,3.43
2018-06-24T04:47:38.826Z,3.20
2018-06-24T04:50:09.807Z,2.80
2018-06-24T04:52:39.558Z,3.90
2018-06-24T04:55:09.200Z,2.60
2018-06-24T04:57:38.894Z,3.23
2018-06-24T05:00:08.084Z,3.20
2018-06-24T05:02:37.060Z,4.10
2018-06-24T05:05:06.278Z,2.80
2018-06-24T05:07:36.388Z,3.20
2018-06-24T05:10:05.870Z,3.00
2018-06-24T05:12:34.949Z,3.00
2018-06-24T05:15:03.942Z,3.37
2018-06-24T05:17:33.781Z,3.73
2018-06-24T05:20:03.001Z,3.60
2018-06-24T05:22:32.442Z,3.13
2018-06-24T05:25:03.007Z,3.00
2018-06-24T05:27:32.963Z,3.60
2018-06-24T05:30:01.562Z,3.50
2018-06-24T05:32:30.476Z,3.80
2018-06-24T05:35:03.877Z,3.30
2018-06-24T05:37:34.002Z,3.40
2018-06-24T05:40:03.936Z,3.50
2018-06-24T05:42:33.635Z,3.30
2018-06-24T05:45:03.119Z,3.67
2018-06-24T05:47:33.022Z,3.50
2018-06-24T05:50:02.817Z,3.80
2018-06-24T05:52:31.682Z,3.87
2018-06-24T05:55:00.667Z,4.13
2018-06-24T05:57:31.230Z,3.33
2018-06-24T06:00:00.328Z,3.57
2018-06-24T06:02:29.396Z,3.80
2018-06-24T06:04:59.584Z,4.00
2018-06-24T06:07:33.059Z,5.10
2018-06-24T06:10:02.591Z,4.00
2018-06-24T06:12:31.571Z,3.73
2018-06-24T06:15:00.889Z,3.27
2018-06-24T06:17:32.158Z,4.27
2018-06-24T06:20:01.482Z,3.27
2018-06-24T06:22:35.351Z,3.70
2018-06-24T06:25:04.449Z,3.07
2018-06-24T06:27:35.188Z,3.37
2018-06-24T06:30:04.923Z,3.40
2018-06-24T06:32:33.924Z,3.90
2018-06-24T06:35:02.985Z,4.73
2018-06-24T06:37:32.139Z,6.63
2018-06-24T06:40:01.195Z,3.77
2018-06-24T06:42:30.638Z,3.77
2018-06-24T06:45:00.975Z,3.60
2018-06-24T06:47:30.282Z,3.60
2018-06-24T06:49:59.255Z,3.30
2018-06-24T06:52:28.733Z,2.80
2018-06-24T06:54:58.319Z,3.10
2018-06-24T06:57:34.558Z,3.17
2018-06-24T07:00:03.903Z,3.20
2018-06-24T07:02:32.736Z,2.97
2018-06-24T07:05:01.818Z,3.10
2018-06-24T07:07:30.861Z,3.73
2018-06-24T07:10:00.942Z,6.60
2018-06-24T07:12:30.633Z,3.80
2018-06-24T07:15:01.083Z,3.50
2018-06-24T07:17:31.614Z,3.07
2018-06-24T07:20:05.226Z,3.70
2018-06-24T07:22:39.854Z,3.20
2018-06-24T07:25:09.306Z,3.70
2018-06-24T07:27:39.348Z,3.33
2018-06-24T07:30:09.139Z,3.50
2018-06-24T07:32:38.150Z,3.00
2018-06-24T07:35:09.885Z,3.53
2018-06-24T07:37:39.839Z,3.50
2018-06-24T07:40:09.737Z,3.90
2018-06-24T07:42:38.916Z,2.93
2018-06-24T07:45:08.257Z,3.60
2018-06-24T07:47:38.001Z,3.03
2018-06-24T07:50:06.884Z,3.52
2018-06-24T07:52:37.098Z,3.67
2018-06-24T07:55:06.789Z,3.50
2018-06-24T07:57:36.909Z,3.30
2018-06-24T08:00:07.439Z,2.97
2018-06-24T08:02:37.590Z,3.10
2018-06-24T08:05:07.025Z,3.57
2018-06-24T08:07:37.582Z,3.10
2018-06-24T08:10:06.474Z,3.30
2018-06-24T08:12:35.437Z,3.57
2018-06-24T08:15:06.174Z,3.07
2018-06-24T08:17:35.463Z,3.17
2018-06-24T08:20:04.402Z,3.07
2018-06-24T08:22:33.677Z,2.47
2018-06-24T08:25:03.949Z,2.77
2018-06-24T08:27:35.204Z,2.67
2018-06-24T08:30:04.150Z,2.83
2018-06-24T08:32:33.254Z,2.60
2018-06-24T08:35:02.655Z,3.40
2018-06-24T08:37:32.061Z,3.13
2018-06-24T08:40:01.515Z,3.30
2018-06-24T08:42:31.091Z,3.10
2018-06-24T08:45:00.177Z,3.77
2018-06-24T08:47:29.160Z,6.10
2018-06-24T08:49:58.398Z,3.13
2018-06-24T08:52:27.355Z,3.43
2018-06-24T08:54:56.217Z,3.40
2018-06-24T08:57:26.681Z,3.40
2018-06-24T08:59:55.153Z,3.43
2018-06-24T09:02:25.288Z,3.40
2018-06-24T09:04:54.949Z,3.73
2018-06-24T09:07:25.895Z,3.40
2018-06-24T09:09:55.101Z,2.83
2018-06-24T09:12:25.448Z,2.93
2018-06-24T09:14:54.700Z,2.90
2018-06-24T09:17:23.833Z,2.47
2018-06-24T09:19:52.971Z,3.20
2018-06-24T09:22:22.494Z,3.70
2018-06-24T09:24:51.706Z,2.90
2018-06-24T09:27:21.463Z,2.80
2018-06-24T09:29:50.534Z,3.30
2018-06-24T09:32:21.165Z,3.43
2018-06-24T09:34:52.277Z,3.00
2018-06-24T09:37:22.029Z,3.27
2018-06-24T09:39:51.544Z,3.13
2018-06-24T09:42:20.366Z,3.70
2018-06-24T09:44:49.335Z,2.77
2018-06-24T09:47:19.914Z,3.40
2018-06-24T09:49:49.999Z,3.13
2018-06-24T09:52:19.146Z,3.00
2018-06-24T09:54:49.077Z,2.90
2018-06-24T09:57:17.931Z,3.20
2018-06-24T09:59:46.910Z,3.30
2018-06-24T10:02:16.082Z,2.93
2018-06-24T10:04:45.462Z,2.90
2018-06-24T10:07:14.827Z,3.17
2018-06-24T10:09:44.381Z,3.50
2018-06-24T10:12:13.752Z,3.43
2018-06-24T10:14:42.660Z,3.60
2018-06-24T10:17:11.968Z,3.40
2018-06-24T10:19:41.349Z,3.20
2018-06-24T10:22:10.189Z,3.10
2018-06-24T10:24:40.200Z,3.00
2018-06-24T10:27:09.322Z,3.40
2018-06-24T10:29:40.573Z,2.77
2018-06-24T10:32:09.487Z,2.50
2018-06-24T10:34:38.856Z,2.80
2018-06-24T10:37:09.149Z,3.30
2018-06-24T10:39:37.440Z,2.37
2018-06-24T10:42:06.639Z,3.10
2018-06-24T10:44:35.361Z,3.53
2018-06-24T10:47:04.948Z,3.43
2018-06-24T10:49:34.006Z,3.33
2018-06-24T10:52:03.364Z,2.57
2018-06-24T10:54:33.344Z,2.90
2018-06-24T10:57:02.339Z,3.67
2018-06-24T10:59:31.834Z,2.80
2018-06-24T11:02:01.911Z,3.20
2018-06-24T11:04:31.331Z,3.13
2018-06-24T11:07:00.380Z,4.00
2018-06-24T11:09:29.754Z,3.60
2018-06-24T11:11:59.130Z,3.37
2018-06-24T11:14:28.933Z,2.80
2018-06-24T11:16:58.440Z,3.20
2018-06-24T11:19:27.805Z,2.90
2018-06-24T11:21:57.064Z,2.20
2018-06-24T11:24:26.537Z,2.33
2018-06-24T11:26:55.703Z,2.10
2018-06-24T11:29:26.005Z,2.33
2018-06-24T11:31:54.822Z,1.80
2018-06-24T11:34:23.976Z,1.80
2018-06-24T11:36:54.856Z,1.80
2018-06-24T11:39:24.943Z,1.60
2018-06-24T11:41:53.653Z,1.40
2018-06-24T11:44:23.264Z,1.50
2018-06-24T11:46:51.958Z,1.37
2018-06-24T11:49:21.817Z,1.23
2018-06-24T11:51:51.727Z,1.60
2018-06-24T11:54:20.560Z,1.30
2018-06-24T11:56:51.585Z,1.33
2018-06-24T11:59:20.819Z,1.07
2018-06-24T12:01:50.239Z,1.30
2018-06-24T12:04:20.897Z,1.53
2018-06-24T12:06:49.779Z,2.07
2018-06-24T12:09:18.713Z,1.70
2018-06-24T12:11:48.048Z,1.70
2018-06-24T12:14:16.815Z,1.77
2018-06-24T12:16:45.513Z,2.00
2018-06-24T12:19:14.402Z,1.50
2018-06-24T12:21:43.745Z,1.40
2018-06-24T12:24:13.719Z,1.10
2018-06-24T12:26:42.643Z,1.60
2018-06-24T12:29:11.635Z,1.50
2018-06-24T12:31:40.589Z,1.70
2018-06-24T12:34:10.737Z,1.40
2018-06-24T12:36:42.629Z,1.20
2018-06-24T12:39:17.387Z,1.30
2018-06-24T12:41:46.125Z,0.83
2018-06-24T12:44:14.921Z,1.50
2018-06-24T12:46:43.999Z,1.13
2018-06-24T12:49:12.812Z,1.27
2018-06-24T12:51:42.133Z,1.00
2018-06-24T12:54:10.944Z,1.30
2018-06-24T12:56:40.513Z,0.90
2018-06-24T12:59:11.015Z,0.87
2018-06-24T13:01:39.610Z,1.40
2018-06-24T13:04:08.435Z,1.40
2018-06-24T13:06:37.860Z,0.90
2018-06-24T13:09:08.616Z,1.00
2018-06-24T13:11:38.142Z,1.00
2018-06-24T13:14:07.103Z,0.80
2018-06-24T13:16:36.536Z,1.50
2018-06-24T13:19:05.932Z,1.10
2018-06-24T13:21:35.493Z,1.27
2018-06-24T13:24:05.987Z,1.10
2018-06-24T13:26:35.638Z,1.43
2018-06-24T13:29:04.836Z,1.00
2018-06-24T13:31:34.685Z,1.10
2018-06-24T13:34:04.096Z,1.20
2018-06-24T13:36:34.059Z,1.20
2018-06-24T13:39:03.434Z,1.33
2018-06-24T13:41:32.842Z,1.30
2018-06-24T13:44:01.596Z,1.73
2018-06-24T13:46:32.836Z,1.30
2018-06-24T13:49:01.624Z,1.10
2018-06-24T13:51:31.087Z,1.13
2018-06-24T13:54:00.144Z,1.43
2018-06-24T13:56:30.030Z,1.50
2018-06-24T13:58:59.667Z,1.30
2018-06-24T14:01:29.940Z,1.40
2018-06-24T14:04:00.816Z,1.53
2018-06-24T14:06:29.730Z,1.30
2018-06-24T14:08:59.010Z,1.57
2018-06-24T14:11:27.756Z,1.20
2018-06-24T14:13:57.566Z,1.60
2018-06-24T14:16:27.407Z,2.13
2018-06-24T14:18:56.861Z,1.20
2018-06-24T14:21:27.581Z,1.33
2018-06-24T14:23:56.583Z,1.10
2018-06-24T14:26:26.730Z,1.13
2018-06-24T14:28:56.131Z,1.27
2018-06-24T14:31:24.990Z,1.33
2018-06-24T14:33:57.227Z,1.40
2018-06-24T14:36:26.133Z,1.33
2018-06-24T14:38:54.821Z,1.33
2018-06-24T14:41:24.893Z,1.57
2018-06-24T14:43:55.025Z,1.30
2018-06-24T14:46:23.871Z,1.50
2018-06-24T14:48:54.616Z,1.90
2018-06-24T14:51:23.510Z,5.47
2018-06-24T14:53:53.335Z,1.97
2018-06-24T14:56:23.362Z,1.30
2018-06-24T14:58:53.813Z,1.10
2018-06-24T15:01:23.567Z,1.50
2018-06-24T15:03:53.525Z,1.50
2018-06-24T15:06:22.619Z,1.27
2018-06-24T15:08:53.069Z,1.10
2018-06-24T15:11:22.834Z,1.10
2018-06-24T15:13:51.823Z,0.90
2018-06-24T15:16:20.809Z,1.20
2018-06-24T15:18:50.231Z,1.23
2018-06-24T15:21:19.845Z,6.80
2018-06-24T15:23:49.274Z,1.50
2018-06-24T15:26:17.945Z,1.27
2018-06-24T15:28:47.304Z,1.40
2018-06-24T15:31:16.858Z,1.47
2018-06-24T15:33:45.716Z,1.20
2018-06-24T15:36:15.656Z,1.20
2018-06-24T15:38:45.138Z,1.20
2018-06-24T15:41:15.045Z,1.10
2018-06-24T15:43:43.778Z,1.60
2018-06-24T15:46:13.099Z,1.60
2018-06-24T15:48:45.720Z,1.10
2018-06-24T15:51:16.841Z,1.40
2018-06-24T15:53:46.936Z,1.57
2018-06-24T15:56:16.702Z,1.60
2018-06-24T15:58:45.469Z,1.10
2018-06-24T16:01:14.637Z,1.40
2018-06-24T16:03:43.653Z,1.53
2018-06-24T16:06:14.121Z,1.87
2018-06-24T16:08:43.578Z,2.10
2018-06-24T16:11:13.083Z,1.70
2018-06-24T16:13:43.461Z,1.30
2018-06-24T16:16:12.425Z,1.50
2018-06-24T16:18:42.363Z,1.27
2018-06-24T16:21:12.786Z,2.70
2018-06-24T16:23:41.906Z,2.13
2018-06-24T16:26:10.643Z,2.43
2018-06-24T16:28:39.490Z,1.63
2018-06-24T16:31:09.343Z,6.03
2018-06-24T16:33:39.314Z,5.60
2018-06-24T16:36:08.254Z,5.10
2018-06-24T16:38:37.157Z,2.53
2018-06-24T16:41:06.064Z,4.07
2018-06-24T16:43:34.788Z,2.17
2018-06-24T16:46:04.272Z,2.50
2018-06-24T16:48:33.361Z,1.90
2018-06-24T16:51:02.417Z,2.70
2018-06-24T16:53:32.510Z,2.63
2018-06-24T16:56:02.835Z,3.10
2018-06-24T16:58:31.600Z,2.17
2018-06-24T17:01:00.506Z,1.93
2018-06-24T17:03:29.294Z,2.20
2018-06-24T17:05:58.638Z,1.67
2018-06-24T17:08:27.460Z,1.90
2018-06-24T17:10:56.437Z,2.20
2018-06-24T17:13:25.209Z,2.10
2018-06-24T17:15:54.558Z,2.30
2018-06-24T17:18:23.408Z,2.60
2018-06-24T17:20:52.155Z,1.97
2018-06-24T17:23:21.306Z,1.80
2018-06-24T17:25:50.183Z,1.43
2018-06-24T17:28:19.004Z,1.53
2018-06-24T17:30:47.881Z,5.80
2018-06-24T17:33:17.705Z,5.63
2018-06-24T17:35:47.128Z,2.90
2018-06-24T17:38:16.145Z,1.70
2018-06-24T17:40:45.950Z,1.93
2018-06-24T17:43:14.722Z,2.73
2018-06-24T17:45:43.509Z,3.43
2018-06-24T17:48:13.058Z,1.90
2018-06-24T17:50:41.915Z,1.90
2018-06-24T17:53:10.829Z,2.37
2018-06-24T17:55:39.760Z,2.53
2018-06-24T17:58:08.725Z,2.10
2018-06-24T18:00:37.503Z,2.77
2018-06-24T18:03:07.879Z,2.73
2018-06-24T18:05:36.884Z,3.27
2018-06-24T18:08:06.190Z,2.70
2018-06-24T18:10:35.317Z,3.43
2018-06-24T18:13:05.012Z,2.97
2018-06-24T18:15:33.813Z,2.63
2018-06-24T18:18:02.897Z,2.37
2018-06-24T18:20:32.798Z,1.90
2018-06-24T18:23:02.357Z,2.00
2018-06-24T18:25:32.711Z,1.93
2018-06-24T18:28:01.496Z,2.20
2018-06-24T18:30:31.305Z,2.43
2018-06-24T18:33:00.540Z,2.50
2018-06-24T18:35:34.865Z,2.10
2018-06-24T18:38:04.455Z,2.07
2018-06-24T18:40:33.271Z,2.30
2018-06-24T18:43:02.621Z,2.33
2018-06-24T18:45:31.510Z,2.37
2018-06-24T18:48:02.551Z,2.27
2018-06-24T18:50:32.184Z,2.30
2018-06-24T18:53:01.161Z,2.13
2018-06-24T18:55:30.980Z,2.43
2018-06-24T18:57:59.858Z,3.03
2018-06-24T19:00:29.444Z,2.47
2018-06-24T19:02:59.306Z,2.20
2018-06-24T19:05:29.697Z,2.53
2018-06-24T19:08:00.030Z,3.37
2018-06-24T19:10:31.173Z,3.37
2018-06-24T19:13:00.664Z,2.63
2018-06-24T19:15:30.327Z,2.00
2018-06-24T19:18:01.367Z,2.00
2018-06-24T19:20:30.288Z,2.00
2018-06-24T19:23:00.580Z,2.00
2018-06-24T19:25:30.395Z,1.77
2018-06-24T19:27:59.827Z,1.50
2018-06-24T19:30:28.768Z,1.80
2018-06-24T19:32:58.518Z,1.87
2018-06-24T19:35:28.317Z,1.53
2018-06-24T19:37:58.396Z,1.60
2018-06-24T19:40:28.037Z,1.67
2018-06-24T19:42:58.437Z,1.60
2018-06-24T19:45:27.887Z,1.90
2018-06-24T19:47:57.593Z,2.00
2018-06-24T19:50:27.028Z,1.77
2018-06-24T19:52:56.762Z,1.70
2018-06-24T19:55:27.029Z,1.97
2018-06-24T19:57:56.841Z,7.40
2018-06-24T20:00:36.961Z,3.57
2018-06-24T20:03:12.297Z,2.43
2018-06-24T20:05:44.243Z,4.07
2018-06-24T20:08:26.259Z,3.30
2018-06-24T20:10:55.624Z,1.80
2018-06-24T20:13:24.521Z,2.07
2018-06-24T20:15:54.109Z,3.27
2018-06-24T20:18:23.092Z,2.80
2018-06-24T20:20:51.848Z,2.43
2018-06-24T20:23:21.953Z,2.20
2018-06-24T20:25:52.371Z,1.80
2018-06-24T20:28:21.727Z,2.20
2018-06-24T20:30:50.658Z,2.70
2018-06-24T20:33:19.502Z,2.37
2018-06-24T20:35:48.489Z,3.90
2018-06-24T20:38:18.416Z,4.33
2018-06-24T20:40:47.870Z,2.30
2018-06-24T20:43:16.777Z,2.37
2018-06-24T20:45:45.666Z,2.70
2018-06-24T20:48:15.328Z,2.33
2018-06-24T20:50:45.448Z,2.13
2018-06-24T20:53:15.973Z,2.37
2018-06-24T20:55:45.926Z,2.20
2018-06-24T20:58:15.427Z,2.30
2018-06-24T21:00:45.666Z,2.40
2018-06-24T21:03:15.320Z,2.37
2018-06-24T21:05:45.264Z,2.63
2018-06-24T21:08:14.309Z,2.50
2018-06-24T21:10:43.205Z,2.83
2018-06-24T21:13:12.178Z,2.20
2018-06-24T21:15:42.383Z,2.60
2018-06-24T21:18:11.048Z,2.20
2018-06-24T21:20:40.031Z,2.47
2018-06-24T21:23:09.136Z,2.50
2018-06-24T21:25:38.813Z,2.33
2018-06-24T21:28:08.878Z,2.23
2018-06-24T21:30:41.587Z,2.77
2018-06-24T21:33:10.576Z,2.20
2018-06-24T21:35:39.588Z,2.23
2018-06-24T21:38:08.441Z,2.90
2018-06-24T21:40:38.247Z,3.20
2018-06-24T21:43:07.304Z,2.80
2018-06-24T21:45:37.117Z,2.73
2018-06-24T21:48:07.412Z,2.23
2018-06-24T21:50:38.632Z,2.80
2018-06-24T21:53:07.492Z,2.43
2018-06-24T21:55:36.991Z,2.80
2018-06-24T21:58:06.474Z,2.63
2018-06-24T22:00:35.384Z,2.30
2018-06-24T22:03:05.321Z,2.30
2018-06-24T22:05:34.313Z,2.80
2018-06-24T22:08:03.482Z,2.90
2018-06-24T22:10:32.352Z,2.87
2018-06-24T22:13:02.098Z,2.90
2018-06-24T22:15:30.782Z,2.90
2018-06-24T22:17:59.651Z,2.63
2018-06-24T22:20:29.436Z,2.97
2018-06-24T22:22:58.902Z,2.87
2018-06-24T22:25:27.821Z,2.90
2018-06-24T22:27:56.933Z,2.70
2018-06-24T22:30:26.176Z,2.80
2018-06-24T22:32:55.628Z,3.20
2018-06-24T22:35:24.429Z,2.83
2018-06-24T22:37:54.160Z,3.37
2018-06-24T22:40:22.863Z,2.93
2018-06-24T22:42:52.247Z,3.13
2018-06-24T22:45:22.093Z,3.23
2018-06-24T22:47:52.965Z,3.13
2018-06-24T22:50:21.675Z,2.87
2018-06-24T22:52:51.239Z,2.70
2018-06-24T22:55:20.983Z,2.97
2018-06-24T22:57:50.386Z,3.00
2018-06-24T23:00:19.383Z,2.97
2018-06-24T23:02:49.481Z,3.00
2018-06-24T23:05:19.294Z,3.20
2018-06-24T23:07:48.937Z,3.00
2018-06-24T23:10:17.940Z,2.80
2018-06-24T23:12:46.959Z,2.90
2018-06-24T23:15:16.991Z,3.03
2018-06-24T23:17:46.657Z,2.90
2018-06-24T23:20:15.632Z,3.63
2018-06-24T23:22:44.630Z,2.67
2018-06-24T23:25:13.562Z,2.60
2018-06-24T23:27:43.042Z,3.10
2018-06-24T23:30:13.001Z,2.57
2018-06-24T23:32:42.089Z,2.67
2018-06-24T23:35:11.806Z,2.70
2018-06-24T23:37:40.667Z,2.60
2018-06-24T23:40:09.433Z,2.90
2018-06-24T23:42:38.510Z,2.67
2018-06-24T23:45:07.472Z,2.60
2018-06-24T23:47:36.452Z,2.67
2018-06-24T23:50:06.265Z,2.70
2018-06-24T23:52:35.690Z,1.97
2018-06-24T23:55:04.889Z,2.00
2018-06-24T23:57:35.310Z,2.00
